Mac Dill Air Force Base Tampa US
ICAO: KMCF
IATA: MCF
Category: Large
Scheduled Services: No

Elevation: 14 ft
TransAlt. 18000 ft.

Airport Communications:
TAMPA APP:124.95
ATIS:133.825
TAMPA DEP:119.65
GND:118.575
PMSV METRO:34.46
6 AMW COMD POST:138.95
PTD:37.22
TWR:123.7

KMCF Zoom In..

Runways:

(A) RW 04 length 11421 ft width 151 ft
ILS 109.50 / hdg 45

(B) RW 22 length 11421 ft width 151 ft
ILS 111.70 / hdg 225

Location; KMCF
Day. 07 / Time. 13.56 Zulu
* Altimeter: 30.09
* Temperature: 30° c. 86°f.
* Wind from: 000° Speed 00 kn.
Dewpoint: 25° c.
Visibility: 10 Statute Miles.
Clouds: Few 19000 ft.

KMCF 071356Z AUTO 00000KT 10SM FEW190 30/25 A3009 RMK AO2 SLP192 T02970250 FZRANO $

Going to: --> -->


Wind - Calm.

 
 
jpsmedia worldairports.se 2020   terms of use